Time;durP1;ratioP1;P1;durP2;ratioP2;P2;SDS_P1;SDS_P2;PMS_P1;PMS_P2;Temp;Humidity;BMP_temperature;BMP_pressure;BME280_temperature;BME280_humidity;BME280_pressure;Samples;Min_cycle;Max_cycle;Signal;HPM_P1;HPM_P2
2023/02/28 00:02:25;;;;;;;4.83;3.40;;;;;;;-3.39;59.23;96123.31;5024352;28;20652;-77
2023/02/28 00:04:52;;;;;;;2.83;2.33;;;;;;;-3.51;59.05;96122.81;5010495;28;20603;-77
2023/02/28 00:07:18;;;;;;;3.00;2.30;;;;;;;-3.49;59.70;96128.66;5002262;28;20285;-77
2023/02/28 00:09:43;;;;;;;5.40;2.47;;;;;;;-3.68;60.15;96119.97;5037399;28;20182;-77
2023/02/28 00:12:10;;;;;;;4.40;2.30;;;;;;;-3.47;59.63;96126.09;5023780;28;20222;-77
2023/02/28 00:14:36;;;;;;;4.77;2.70;;;;;;;-3.46;60.06;96120.94;5018406;28;20217;-76
2023/02/28 00:17:01;;;;;;;5.03;3.23;;;;;;;-3.54;60.01;96122.91;5019668;28;20179;-78
2023/02/28 00:19:26;;;;;;;4.30;2.83;;;;;;;-3.59;60.54;96116.31;5023538;28;20191;-77
2023/02/28 00:21:52;;;;;;;3.93;2.70;;;;;;;-3.55;60.51;96118.69;5035114;28;20187;-77
2023/02/28 00:24:17;;;;;;;4.13;3.10;;;;;;;-3.58;62.28;96118.81;5017354;28;20203;-77
2023/02/28 00:26:42;;;;;;;5.57;2.97;;;;;;;-3.66;62.27;96119.94;5021044;28;20213;-77
2023/02/28 00:29:08;;;;;;;3.97;3.20;;;;;;;-3.64;63.43;96115.63;5022616;28;20195;-77
2023/02/28 00:31:33;;;;;;;5.70;3.13;;;;;;;-3.63;63.58;96112.22;5019603;28;20248;-77
2023/02/28 00:33:58;;;;;;;3.87;2.93;;;;;;;-3.74;64.86;96108.31;5020086;28;20190;-77
2023/02/28 00:36:23;;;;;;;3.53;2.97;;;;;;;-3.74;64.70;96115.91;5040005;28;20190;-77
2023/02/28 00:38:49;;;;;;;3.50;3.00;;;;;;;-3.80;65.38;96108.50;5029377;28;20214;-77
2023/02/28 00:41:14;;;;;;;3.20;2.90;;;;;;;-3.74;65.05;96115.09;5026220;28;20183;-77
2023/02/28 00:43:40;;;;;;;3.93;3.23;;;;;;;-3.71;65.88;96118.38;5029976;28;20226;-77
2023/02/28 00:46:05;;;;;;;5.07;3.40;;;;;;;-3.75;66.09;96116.78;5022163;28;20279;-77
2023/02/28 00:48:31;;;;;;;4.53;3.10;;;;;;;-3.80;66.59;96111.06;5018603;28;20187;-77
2023/02/28 00:50:56;;;;;;;4.87;3.13;;;;;;;-3.81;66.86;96116.16;5017590;28;20222;-77
2023/02/28 00:53:22;;;;;;;5.07;3.50;;;;;;;-3.74;66.98;96115.09;5031034;28;20278;-76
2023/02/28 00:55:48;;;;;;;3.70;2.97;;;;;;;-3.85;67.89;96109.53;5006662;28;20207;-76
2023/02/28 00:58:14;;;;;;;4.67;3.37;;;;;;;-3.83;67.92;96108.59;5031042;28;20256;-77
2023/02/28 01:00:39;;;;;;;4.27;3.23;;;;;;;-3.91;68.57;96105.47;5024568;28;20722;-77
2023/02/28 01:03:04;;;;;;;4.33;3.27;;;;;;;-3.78;67.96;96116.91;5021009;28;20233;-77
2023/02/28 01:05:30;;;;;;;7.77;3.60;;;;;;;-3.84;68.91;96111.19;5025274;28;20199;-77
2023/02/28 01:07:55;;;;;;;4.77;3.70;;;;;;;-3.89;68.89;96106.22;5018911;28;20197;-77
2023/02/28 01:10:20;;;;;;;7.03;4.40;;;;;;;-3.95;69.47;96108.97;5025673;28;20686;-77
2023/02/28 01:12:45;;;;;;;6.83;4.00;;;;;;;-3.86;69.32;96111.22;5024644;28;20190;-77
2023/02/28 01:15:11;;;;;;;7.43;4.07;;;;;;;-3.92;69.86;96108.88;5019491;28;20687;-77
2023/02/28 01:17:36;;;;;;;5.40;3.97;;;;;;;-3.95;70.12;96103.06;5019610;28;20193;-77
2023/02/28 01:20:02;;;;;;;7.43;3.80;;;;;;;-3.84;69.45;96098.50;5021974;28;20215;-77
2023/02/28 01:22:28;;;;;;;6.60;3.53;;;;;;;-3.83;69.62;96102.69;5009269;28;20283;-77
2023/02/28 01:24:53;;;;;;;4.70;3.70;;;;;;;-3.92;70.44;96102.97;5021545;28;20211;-77
2023/02/28 01:27:19;;;;;;;6.53;4.27;;;;;;;-3.95;71.08;96100.53;5021138;28;20253;-77
2023/02/28 01:29:44;;;;;;;5.50;3.77;;;;;;;-3.89;70.93;96102.88;5005868;28;20190;-78
2023/02/28 01:32:09;;;;;;;8.27;4.47;;;;;;;-4.05;72.22;96097.44;5026728;28;20223;-77
2023/02/28 01:34:35;;;;;;;6.77;4.10;;;;;;;-4.07;72.49;96109.31;5017876;28;20218;-77
2023/02/28 01:37:00;;;;;;;5.53;4.27;;;;;;;-4.07;72.85;96104.25;5019119;28;20361;-77
2023/02/28 01:39:26;;;;;;;5.83;4.13;;;;;;;-4.04;73.03;96099.94;5017739;28;20186;-77
2023/02/28 01:41:51;;;;;;;6.10;4.70;;;;;;;-4.05;73.45;96102.53;5018166;28;20621;-77
2023/02/28 01:44:54;;;;;;;6.97;4.50;;;;;;;-4.07;74.54;96099.19;5009474;28;20280;-77
2023/02/28 01:47:20;;;;;;;8.17;5.30;;;;;;;-4.13;74.65;96099.38;5027086;28;20182;-76
2023/02/28 01:49:46;;;;;;;7.00;4.43;;;;;;;-4.07;74.24;96099.19;5027553;28;20651;-77
2023/02/28 01:52:17;;;;;;;7.00;4.67;;;;;;;-4.10;74.65;96094.22;5018860;28;20218;-77
2023/02/28 01:54:47;;;;;;;5.70;4.90;;;;;;;-4.25;75.83;96095.47;5021848;28;20211;-77
2023/02/28 01:57:17;;;;;;;7.13;4.83;;;;;;;-4.08;75.16;96094.97;5015287;28;20209;-77
2023/02/28 01:59:50;;;;;;;8.37;4.90;;;;;;;-4.09;75.22;96094.16;5026428;28;20194;-78
2023/02/28 02:02:18;;;;;;;6.13;4.73;;;;;;;-4.23;75.96;96086.16;5023939;28;20214;-77
2023/02/28 02:05:01;;;;;;;7.07;4.47;;;;;;;-4.14;76.10;96087.59;5020926;28;20732;-77
2023/02/28 02:07:29;;;;;;;7.53;4.80;;;;;;;-4.19;76.09;96082.63;5013500;28;20273;-78
2023/02/28 02:10:22;;;;;;;8.47;5.10;;;;;;;-4.33;77.23;96078.00;5020085;28;20688;-77
2023/02/28 02:13:45;;;;;;;8.40;5.50;;;;;;;-4.18;77.19;96080.91;5018817;28;20273;-77
2023/02/28 02:16:29;;;;;;;7.47;4.97;;;;;;;-4.29;77.67;96079.53;5004879;28;20191;-77
2023/02/28 02:19:14;;;;;;;7.50;4.50;;;;;;;-4.30;77.99;96072.81;5003036;28;20563;-77
2023/02/28 02:21:58;;;;;;;5.97;4.83;;;;;;;-4.24;77.71;96070.94;5005908;28;20195;-77
2023/02/28 02:25:00;;;;;;;5.90;5.30;;;;;;;-4.29;78.55;96077.00;4989983;28;20295;-77
2023/02/28 02:27:59;;;;;;;6.30;5.00;;;;;;;-4.34;78.84;96070.41;5003349;28;20219;-76
2023/02/28 02:30:46;;;;;;;8.03;5.20;;;;;;;-4.31;78.27;96073.69;4987623;28;20216;-77
2023/02/28 02:33:37;;;;;;;7.63;5.37;;;;;;;-4.29;78.95;96069.41;5005165;28;20202;-77
2023/02/28 02:36:14;;;;;;;10.53;5.93;;;;;;;-4.30;78.60;96070.28;5002390;28;20212;-77
2023/02/28 02:39:11;;;;;;;8.47;5.90;;;;;;;-4.32;79.48;96066.97;5002908;28;20195;-78
2023/02/28 02:41:46;;;;;;;7.40;4.87;;;;;;;-4.28;78.50;96065.97;4995361;28;20287;-77
2023/02/28 02:44:18;;;;;;;7.23;5.10;;;;;;;-4.25;78.32;96067.59;4983598;28;20401;-77
2023/02/28 02:46:45;;;;;;;6.50;4.93;;;;;;;-4.46;79.19;96071.59;4996940;28;20602;-77
2023/02/28 02:49:19;;;;;;;6.83;5.50;;;;;;;-4.31;79.25;96073.69;5014224;28;20606;-77
2023/02/28 02:51:46;;;;;;;6.50;5.33;;;;;;;-4.49;79.61;96069.16;5032598;28;20336;-77
2023/02/28 02:54:18;;;;;;;9.67;5.53;;;;;;;-4.36;79.44;96070.44;5023093;28;20421;-77
2023/02/28 02:56:46;;;;;;;7.50;5.53;;;;;;;-4.29;79.59;96071.09;5010398;28;20644;-77
2023/02/28 02:59:14;;;;;;;9.87;5.67;;;;;;;-4.43;80.55;96071.50;5019329;28;20198;-77
2023/02/28 03:01:40;;;;;;;8.23;5.93;;;;;;;-4.32;80.12;96069.50;5017927;28;20788;-77
2023/02/28 03:04:13;;;;;;;6.87;5.37;;;;;;;-4.34;80.57;96071.22;5023175;28;20591;-77
2023/02/28 03:06:38;;;;;;;6.83;5.63;;;;;;;-4.34;80.58;96072.94;5020789;28;20179;-78
2023/02/28 03:09:04;;;;;;;7.30;5.77;;;;;;;-4.41;80.50;96072.31;5033246;28;20190;-77
2023/02/28 03:11:30;;;;;;;7.77;5.70;;;;;;;-4.47;81.87;96080.09;5010570;28;20705;-77
2023/02/28 03:14:24;;;;;;;7.33;5.27;;;;;;;-4.37;81.12;96073.03;5025219;28;20205;-77
2023/02/28 03:16:52;;;;;;;6.47;5.60;;;;;;;-4.37;81.21;96073.03;5002369;28;20298;-77
2023/02/28 03:19:33;;;;;;;6.67;5.67;;;;;;;-4.41;82.19;96074.00;5024292;28;20206;-77
2023/02/28 03:22:34;;;;;;;8.00;5.57;;;;;;;-4.30;81.56;96077.06;5023664;28;20211;-77
2023/02/28 03:25:20;;;;;;;5.63;5.00;;;;;;;-4.39;82.57;96074.78;5022491;28;20226;-77
2023/02/28 03:28:13;;;;;;;9.07;6.17;;;;;;;-4.23;81.89;96072.63;5026641;28;20633;-78
2023/02/28 03:30:45;;;;;;;8.17;5.47;;;;;;;-4.35;82.40;96074.63;5022279;28;20696;-77
2023/02/28 03:33:24;;;;;;;9.50;6.00;;;;;;;-4.34;82.41;96066.16;5018500;28;20191;-76
2023/02/28 03:36:02;;;;;;;9.13;5.90;;;;;;;-4.29;82.44;96071.94;5025799;28;20237;-77
2023/02/28 03:38:39;;;;;;;8.90;5.50;;;;;;;-4.43;83.92;96063.06;5029827;28;20198;-77
2023/02/28 03:41:11;;;;;;;6.00;5.07;;;;;;;-4.47;83.57;96064.88;5000951;28;20202;-77
2023/02/28 03:43:39;;;;;;;8.30;5.40;;;;;;;-4.27;83.38;96061.75;5033639;28;20195;-77
2023/02/28 03:46:08;;;;;;;7.63;5.80;;;;;;;-4.34;83.74;96071.22;5034789;28;20206;-77
2023/02/28 03:49:05;;;;;;;8.30;6.20;;;;;;;-4.31;82.77;96071.16;5024713;28;20652;-77
2023/02/28 03:51:32;;;;;;;6.50;5.70;;;;;;;-4.29;82.74;96068.56;5033638;28;20269;-77
2023/02/28 03:54:01;;;;;;;10.60;6.17;;;;;;;-4.32;83.18;96069.50;5008169;28;20190;-77
2023/02/28 03:56:32;;;;;;;7.33;5.87;;;;;;;-4.40;84.30;96063.00;5017939;28;20195;-77
2023/02/28 03:59:02;;;;;;;6.67;5.93;;;;;;;-4.39;84.13;96067.19;5020252;28;20197;-77
2023/02/28 04:01:33;;;;;;;7.70;6.00;;;;;;;-4.38;83.99;96059.53;5024223;28;20190;-77
2023/02/28 04:03:59;;;;;;;7.10;5.50;;;;;;;-4.42;84.72;96065.56;5036526;28;20193;-77
2023/02/28 04:06:24;;;;;;;12.00;7.87;;;;;;;-4.25;84.01;96061.69;5027768;28;20195;-77
2023/02/28 04:08:50;;;;;;;12.33;8.13;;;;;;;-4.09;83.06;96066.25;5023247;28;20211;-77
2023/02/28 04:11:22;;;;;;;9.40;6.50;;;;;;;-4.36;84.18;96062.00;5023539;28;20207;-77
2023/02/28 04:13:48;;;;;;;8.90;6.40;;;;;;;-4.29;84.01;96077.00;5028882;28;20205;-77
2023/02/28 04:16:13;;;;;;;8.27;6.73;;;;;;;-4.31;85.04;96067.78;5018933;28;20748;-77
2023/02/28 04:18:39;;;;;;;8.27;6.30;;;;;;;-4.24;83.98;96066.75;5032489;28;20198;-77
2023/02/28 04:21:06;;;;;;;8.47;6.17;;;;;;;-4.25;84.40;96069.28;5003965;28;20212;-77
2023/02/28 04:23:31;;;;;;;7.57;5.67;;;;;;;-4.22;84.23;96062.44;5000394;28;20214;-77
2023/02/28 04:25:56;;;;;;;9.10;6.13;;;;;;;-4.24;84.41;96068.41;5020912;28;20225;-77
2023/02/28 04:28:22;;;;;;;10.10;7.20;;;;;;;-4.28;84.01;96068.53;5022311;28;20249;-77
2023/02/28 04:30:47;;;;;;;7.87;6.67;;;;;;;-4.35;85.05;96063.66;5009877;28;20301;-77
2023/02/28 04:33:12;;;;;;;8.10;6.67;;;;;;;-4.31;85.21;96063.56;5026827;28;20240;-77
2023/02/28 04:35:38;;;;;;;10.67;6.87;;;;;;;-4.27;84.55;96067.63;5020050;28;20215;-77
2023/02/28 04:38:03;;;;;;;8.93;6.50;;;;;;;-4.33;85.08;96064.44;5021811;28;20233;-77
2023/02/28 04:40:28;;;;;;;8.73;6.97;;;;;;;-4.34;85.08;96065.31;5016225;28;20194;-77
2023/02/28 04:42:54;;;;;;;9.67;7.10;;;;;;;-4.21;84.63;96061.56;5029114;28;20253;-77
2023/02/28 04:45:19;;;;;;;9.80;6.77;;;;;;;-4.24;85.20;96056.59;5021367;28;20213;-77
2023/02/28 04:47:44;;;;;;;10.27;7.13;;;;;;;-4.14;84.81;96062.22;5010584;28;20202;-77
2023/02/28 04:50:10;;;;;;;11.13;6.83;;;;;;;-4.18;84.52;96063.16;5004146;28;20187;-77
2023/02/28 04:52:35;;;;;;;9.20;6.87;;;;;;;-4.29;86.10;96064.31;5021455;28;20272;-76
2023/02/28 04:55:01;;;;;;;9.40;7.23;;;;;;;-4.16;85.35;96058.88;5023270;28;20589;-78
2023/02/28 04:57:26;;;;;;;9.97;6.87;;;;;;;-4.13;84.69;96063.88;5000973;28;20210;-77
2023/02/28 04:59:52;;;;;;;9.73;7.50;;;;;;;-4.16;85.59;96064.78;5020483;28;20191;-77
2023/02/28 05:02:17;;;;;;;13.53;9.30;;;;;;;-4.14;84.64;96074.91;5006604;28;20197;-77
2023/02/28 05:04:42;;;;;;;11.23;6.90;;;;;;;-4.14;85.71;96069.81;5029109;28;20225;-77
2023/02/28 05:07:07;;;;;;;10.20;7.00;;;;;;;-4.03;85.19;96071.16;5026883;28;20186;-77
2023/02/28 05:09:33;;;;;;;11.47;6.93;;;;;;;-4.14;85.93;96077.44;5006817;28;20197;-78
2023/02/28 05:11:58;;;;;;;7.63;6.83;;;;;;;-4.04;86.24;96077.09;5006187;28;20246;-77
2023/02/28 05:14:23;;;;;;;10.40;7.67;;;;;;;-4.13;86.08;96079.09;5016600;28;20354;-77
2023/02/28 05:16:49;;;;;;;8.67;6.93;;;;;;;-4.16;86.44;96081.69;5020397;28;20207;-77
2023/02/28 05:19:14;;;;;;;9.40;6.97;;;;;;;-4.23;87.14;96078.53;5022626;28;20191;-77
2023/02/28 05:21:41;;;;;;;11.50;7.07;;;;;;;-3.96;86.61;96076.03;5023991;28;20223;-77
2023/02/28 05:24:09;;;;;;;8.97;6.67;;;;;;;-4.04;87.04;96074.56;5021705;28;20215;-77
2023/02/28 05:26:36;;;;;;;12.13;7.43;;;;;;;-4.07;87.25;96078.88;5026036;28;20222;-77
2023/02/28 05:29:01;;;;;;;11.27;7.53;;;;;;;-3.92;87.14;96077.59;5005035;28;20187;-78
2023/02/28 05:31:27;;;;;;;10.83;7.73;;;;;;;-3.98;86.68;96083.69;4998312;28;20215;-77
2023/02/28 05:33:52;;;;;;;11.17;7.93;;;;;;;-3.95;86.80;96080.25;5019008;28;20191;-78
2023/02/28 05:36:18;;;;;;;12.57;7.90;;;;;;;-3.96;86.83;96076.88;5004996;28;20616;-77
2023/02/28 05:38:46;;;;;;;10.93;7.87;;;;;;;-3.92;86.39;96083.50;5011906;28;20641;-77
2023/02/28 05:41:12;;;;;;;13.27;7.93;;;;;;;-3.99;87.41;96082.03;5030953;28;20182;-77
2023/02/28 05:43:37;;;;;;;14.40;8.67;;;;;;;-3.87;86.73;96091.81;5021877;28;20722;-78
2023/02/28 05:46:07;;;;;;;10.27;7.93;;;;;;;-3.96;86.50;96084.50;5030218;28;20202;-77
2023/02/28 05:48:37;;;;;;;15.97;8.73;;;;;;;-4.06;87.53;96078.03;5011713;28;20196;-77
2023/02/28 05:51:03;;;;;;;13.03;9.13;;;;;;;-3.91;87.34;96080.06;5016639;28;20616;-77
2023/02/28 05:53:29;;;;;;;14.13;8.70;;;;;;;-4.00;87.61;96075.28;5021735;28;20670;-77
2023/02/28 05:55:54;;;;;;;16.90;10.17;;;;;;;-3.89;86.87;96080.03;5010129;28;20245;-76
2023/02/28 05:58:21;;;;;;;15.07;9.40;;;;;;;-3.79;87.25;96079.72;5020724;28;20273;-77
2023/02/28 06:00:46;;;;;;;15.10;9.60;;;;;;;-3.93;86.67;96081.84;5017586;28;20184;-75
2023/02/28 06:03:11;;;;;;;16.33;10.57;;;;;;;-3.84;86.43;96081.56;5014120;28;20233;-76
2023/02/28 06:05:38;;;;;;;18.83;11.97;;;;;;;-3.71;86.18;96076.91;4994428;28;20341;-76
2023/02/28 06:08:04;;;;;;;16.97;10.53;;;;;;;-3.89;86.76;96078.31;5014421;28;20238;-77
2023/02/28 06:10:29;;;;;;;11.87;8.57;;;;;;;-3.76;85.61;96077.06;5017152;28;20202;-76
2023/02/28 06:12:54;;;;;;;18.37;10.73;;;;;;;-3.72;85.85;96073.53;5006311;28;20202;-76
2023/02/28 06:15:20;;;;;;;13.50;10.07;;;;;;;-3.60;85.42;96074.06;5011092;28;20215;-77
2023/02/28 06:17:46;;;;;;;16.00;9.73;;;;;;;-3.68;85.46;96086.97;5015251;28;20241;-77
2023/02/28 06:20:14;;;;;;;13.20;8.77;;;;;;;-3.62;85.11;96084.25;5015702;28;20186;-76
2023/02/28 06:22:40;;;;;;;11.90;8.67;;;;;;;-3.80;85.57;96092.44;4995364;28;20655;-77
2023/02/28 06:25:06;;;;;;;12.97;9.07;;;;;;;-3.58;84.98;96097.69;5001541;28;20232;-76
2023/02/28 06:27:32;;;;;;;10.80;9.10;;;;;;;-3.71;84.98;96090.47;5023304;28;20225;-76
2023/02/28 06:29:58;;;;;;;12.93;8.73;;;;;;;-3.71;84.84;96093.00;5034714;28;20193;-78
2023/02/28 06:32:23;;;;;;;12.47;8.57;;;;;;;-3.65;84.37;96101.28;5018620;28;20206;-77
2023/02/28 06:34:50;;;;;;;11.90;8.10;;;;;;;-3.60;84.23;96096.91;5011497;28;20206;-77
2023/02/28 06:37:15;;;;;;;12.60;8.53;;;;;;;-3.60;84.14;96094.38;5009726;28;20655;-77
2023/02/28 06:39:40;;;;;;;11.63;7.97;;;;;;;-3.49;84.01;96107.53;5022206;28;20194;-77
2023/02/28 06:42:06;;;;;;;10.50;7.73;;;;;;;-3.73;84.34;96109.97;5032399;28;20182;-77
2023/02/28 06:44:34;;;;;;;14.87;7.83;;;;;;;-3.58;84.15;96107.81;5016287;28;20237;-77
2023/02/28 06:47:03;;;;;;;10.57;8.20;;;;;;;-3.61;83.56;96105.41;5017369;28;20519;-77
2023/02/28 06:49:28;;;;;;;9.30;7.37;;;;;;;-3.66;83.85;96100.44;5021867;28;20185;-77
2023/02/28 06:51:54;;;;;;;11.70;8.07;;;;;;;-3.61;83.03;96101.16;5016125;28;20581;-77
2023/02/28 06:54:19;;;;;;;13.13;8.10;;;;;;;-3.60;83.73;96104.50;5025317;28;20221;-78
2023/02/28 06:56:45;;;;;;;12.67;8.17;;;;;;;-3.44;82.72;96111.59;5036291;28;20287;-77
2023/02/28 06:59:10;;;;;;;10.40;7.20;;;;;;;-3.54;82.85;96114.44;5035266;28;20182;-77
2023/02/28 07:01:35;;;;;;;10.83;7.90;;;;;;;-3.49;82.41;96117.69;5024181;28;20187;-77
2023/02/28 07:04:01;;;;;;;9.23;7.13;;;;;;;-3.51;82.16;96125.38;5030838;28;20219;-77
2023/02/28 07:06:26;;;;;;;10.27;7.43;;;;;;;-3.35;81.85;96120.63;5035426;28;20676;-77
2023/02/28 07:08:53;;;;;;;10.93;7.37;;;;;;;-3.34;81.00;96131.63;5006525;28;20210;-77
2023/02/28 07:11:19;;;;;;;11.73;7.80;;;;;;;-3.28;81.39;96133.94;5028259;28;20262;-76
2023/02/28 07:13:46;;;;;;;11.43;7.27;;;;;;;-3.36;80.91;96136.72;5021464;28;20178;-77
2023/02/28 07:16:11;;;;;;;10.43;7.27;;;;;;;-3.28;80.96;96132.22;5031973;28;20368;-78
2023/02/28 07:18:37;;;;;;;10.73;7.13;;;;;;;-3.30;81.26;96138.25;5024859;28;20218;-77
2023/02/28 07:21:08;;;;;;;11.37;8.27;;;;;;;-3.18;80.24;96131.06;5023267;28;20187;-77
2023/02/28 07:23:34;;;;;;;12.17;8.47;;;;;;;-3.20;80.78;96135.34;5018760;28;20197;-77
2023/02/28 07:25:59;;;;;;;13.63;8.77;;;;;;;-3.06;80.02;96136.63;5023254;28;20207;-77
2023/02/28 07:28:25;;;;;;;11.30;7.33;;;;;;;-3.14;79.73;96129.25;5025969;28;20605;-78
2023/02/28 07:30:50;;;;;;;11.80;7.97;;;;;;;-3.31;80.66;96132.34;5025364;28;20234;-76
2023/02/28 07:33:16;;;;;;;15.90;9.10;;;;;;;-3.17;80.39;96135.25;5011143;28;20222;-78
2023/02/28 07:35:41;;;;;;;13.63;9.70;;;;;;;-3.20;80.48;96137.88;5028524;28;20210;-79
2023/02/28 07:38:10;;;;;;;18.17;16.27;;;;;;;-3.16;79.99;96142.00;5030922;28;20186;-77
2023/02/28 07:40:35;;;;;;;14.77;10.90;;;;;;;-3.11;80.52;96135.91;5020701;28;20680;-77
2023/02/28 07:43:01;;;;;;;12.37;8.83;;;;;;;-3.10;80.18;96128.25;5020255;28;20273;-76
2023/02/28 07:45:28;;;;;;;9.73;7.73;;;;;;;-3.11;79.38;96130.84;5040963;28;20202;-76
2023/02/28 07:47:54;;;;;;;13.43;8.97;;;;;;;-3.20;80.06;96130.25;5021644;28;20195;-78
2023/02/28 07:50:20;;;;;;;10.10;7.73;;;;;;;-3.03;79.27;96129.72;5023044;28;20187;-77
2023/02/28 07:52:45;;;;;;;13.80;8.77;;;;;;;-3.22;80.00;96136.28;5027325;28;20594;-76
2023/02/28 07:55:11;;;;;;;11.57;8.87;;;;;;;-2.94;79.20;96131.09;5019946;28;20262;-77
2023/02/28 07:57:36;;;;;;;11.97;8.30;;;;;;;-2.95;78.84;96142.97;5005049;28;20679;-77
2023/02/28 08:00:04;;;;;;;11.70;8.47;;;;;;;-2.94;78.50;96137.03;5011850;28;20180;-77
2023/02/28 08:02:30;;;;;;;11.77;7.57;;;;;;;-2.91;78.22;96142.03;5026917;28;20184;-78
2023/02/28 08:04:56;;;;;;;12.47;7.67;;;;;;;-2.72;78.17;96133.75;5021468;28;20281;-77
2023/02/28 08:07:21;;;;;;;11.63;7.80;;;;;;;-2.63;77.61;96135.97;5022836;28;20191;-77
2023/02/28 08:09:46;;;;;;;13.20;8.90;;;;;;;-2.79;77.41;96143.31;5023088;28;20717;-78
2023/02/28 08:12:11;;;;;;;11.17;8.07;;;;;;;-2.77;77.73;96148.31;5027714;28;20278;-77
2023/02/28 08:14:37;;;;;;;12.00;8.93;;;;;;;-2.68;76.42;96148.84;5009188;28;20215;-76
2023/02/28 08:17:03;;;;;;;11.33;8.43;;;;;;;-2.79;76.80;96152.63;5024194;28;20186;-78
2023/02/28 08:19:29;;;;;;;11.77;8.53;;;;;;;-2.72;76.85;96152.38;5027401;28;20240;-77
2023/02/28 08:21:54;;;;;;;11.50;8.43;;;;;;;-2.67;76.80;96149.66;5005175;28;20176;-77
2023/02/28 08:24:20;;;;;;;13.53;8.97;;;;;;;-2.63;76.31;96139.34;5021102;28;20670;-77
2023/02/28 08:26:45;;;;;;;16.63;10.87;;;;;;;-2.77;76.32;96140.69;5023833;28;20194;-77
2023/02/28 08:29:10;;;;;;;17.83;9.70;;;;;;;-2.71;76.51;96143.88;5020925;28;20195;-77
2023/02/28 08:31:36;;;;;;;15.40;9.57;;;;;;;-2.82;76.31;96150.22;5020664;28;20211;-77
2023/02/28 08:34:12;;;;;;;11.37;8.37;;;;;;;-2.55;74.89;96156.06;5023843;28;20186;-77
2023/02/28 08:36:38;;;;;;;12.60;8.53;;;;;;;-2.53;75.79;96156.84;5013313;28;20277;-77
2023/02/28 08:39:04;;;;;;;13.20;9.07;;;;;;;-2.48;75.40;96162.56;5033296;28;20186;-77
2023/02/28 08:41:30;;;;;;;14.83;8.80;;;;;;;-2.69;75.50;96159.91;5037326;28;20283;-77
2023/02/28 08:43:55;;;;;;;12.63;8.87;;;;;;;-2.61;75.33;96154.56;5041949;28;20198;-78
2023/02/28 08:46:21;;;;;;;10.87;8.43;;;;;;;-2.52;74.77;96149.13;5003707;28;20183;-76
2023/02/28 08:48:46;;;;;;;13.83;9.27;;;;;;;-2.54;74.42;96156.00;5032174;28;20182;-78
2023/02/28 08:51:18;;;;;;;12.40;9.30;;;;;;;-2.50;74.38;96166.88;5036194;28;20190;-77
2023/02/28 08:53:44;;;;;;;10.83;8.63;;;;;;;-2.40;73.86;96160.59;5023554;28;20179;-78
2023/02/28 08:56:12;;;;;;;12.57;8.57;;;;;;;-2.35;73.53;96163.81;5030561;28;20202;-77
2023/02/28 08:58:37;;;;;;;10.70;7.83;;;;;;;-2.32;73.16;96161.97;5020769;28;20182;-78
2023/02/28 09:01:11;;;;;;;11.50;8.67;;;;;;;-2.14;72.72;96170.66;5038872;28;20211;-77
2023/02/28 09:03:37;;;;;;;12.33;8.60;;;;;;;-2.14;72.71;96178.28;5034017;28;20237;-78
2023/02/28 09:06:02;;;;;;;11.20;8.67;;;;;;;-2.58;73.19;96175.59;5001288;28;20214;-77
2023/02/28 09:08:30;;;;;;;14.60;9.87;;;;;;;-2.36;73.20;96177.41;5021565;28;20249;-77
2023/02/28 09:10:57;;;;;;;13.20;8.87;;;;;;;-2.17;72.81;96167.41;5006960;28;20194;-78
2023/02/28 09:13:23;;;;;;;15.40;9.50;;;;;;;-2.47;73.33;96172.72;5019162;28;20186;-77
2023/02/28 09:15:48;;;;;;;15.73;8.33;;;;;;;-2.43;73.40;96176.78;5028672;28;20203;-76
2023/02/28 09:18:14;;;;;;;13.77;9.20;;;;;;;-2.33;72.48;96185.75;5008335;28;20197;-77
2023/02/28 09:20:41;;;;;;;15.30;10.40;;;;;;;-2.21;72.52;96173.47;5020650;28;20183;-77
2023/02/28 09:23:07;;;;;;;13.83;9.20;;;;;;;-2.11;72.64;96174.81;5035828;28;20186;-77
2023/02/28 09:25:33;;;;;;;14.67;10.33;;;;;;;-2.23;71.33;96172.72;5025365;28;20206;-78
2023/02/28 09:27:58;;;;;;;16.23;10.00;;;;;;;-2.03;71.73;96175.38;5008680;28;20878;-77
2023/02/28 09:30:23;;;;;;;12.83;9.10;;;;;;;-2.02;71.32;96167.69;5002861;28;20282;-77
2023/02/28 09:32:51;;;;;;;11.87;9.07;;;;;;;-1.76;70.68;96176.91;5037557;28;20551;-76
2023/02/28 09:35:18;;;;;;;17.00;10.30;;;;;;;-1.76;70.46;96170.97;5007171;28;20207;-76
2023/02/28 09:37:44;;;;;;;14.50;10.17;;;;;;;-1.95;70.97;96175.06;5006804;28;20211;-77
2023/02/28 09:40:10;;;;;;;13.27;9.80;;;;;;;-1.57;69.75;96171.09;5019418;28;20183;-77
2023/02/28 09:42:35;;;;;;;13.30;9.80;;;;;;;-1.31;69.77;96175.19;5039733;28;20197;-77
2023/02/28 09:45:06;;;;;;;18.80;11.57;;;;;;;-1.43;69.35;96171.38;5027705;28;20207;-78
2023/02/28 09:47:42;;;;;;;14.27;9.27;;;;;;;-1.77;69.62;96176.94;5017597;28;20305;-77
2023/02/28 09:50:25;;;;;;;14.60;10.00;;;;;;;-1.54;69.53;96182.00;5021362;28;20285;-77
2023/02/28 09:52:53;;;;;;;15.93;10.83;;;;;;;-1.44;68.97;96182.47;5027533;28;20223;-78
2023/02/28 09:55:22;;;;;;;15.33;10.20;;;;;;;-1.36;68.68;96177.91;5002573;28;20222;-77
2023/02/28 09:57:49;;;;;;;13.70;8.93;;;;;;;-1.27;68.62;96189.44;5033793;28;20501;-78
2023/02/28 10:00:23;;;;;;;11.13;8.47;;;;;;;-1.43;68.39;96190.03;5024859;28;20186;-79
2023/02/28 10:03:15;;;;;;;16.50;9.80;;;;;;;-1.56;68.07;96181.22;5030340;28;20209;-78
2023/02/28 10:05:48;;;;;;;16.83;10.13;;;;;;;-1.26;67.22;96188.56;5015757;28;20211;-78
2023/02/28 10:08:16;;;;;;;15.73;10.57;;;;;;;-1.20;68.02;96181.50;5027782;28;20214;-78
2023/02/28 10:10:44;;;;;;;14.37;9.57;;;;;;;-0.87;67.25;96184.41;5037404;28;20204;-78
2023/02/28 10:13:23;;;;;;;15.43;8.73;;;;;;;-0.56;66.25;96185.69;5015716;28;20191;-78
2023/02/28 10:15:53;;;;;;;16.93;9.63;;;;;;;-0.31;65.44;96183.75;5028652;28;20198;-78
2023/02/28 10:18:24;;;;;;;17.30;10.83;;;;;;;-0.48;65.11;96193.84;5008981;28;20652;-79
2023/02/28 10:20:50;;;;;;;14.73;9.33;;;;;;;-0.54;65.32;96191.53;5005968;28;20185;-78
2023/02/28 10:23:25;;;;;;;16.77;10.37;;;;;;;-0.82;65.39;96198.69;5022235;28;20192;-79
2023/02/28 10:25:58;;;;;;;16.70;10.13;;;;;;;-1.02;65.79;96202.88;5006438;28;20234;-77
2023/02/28 10:28:24;;;;;;;14.83;10.13;;;;;;;-1.31;66.71;96206.59;5023427;28;20195;-78
2023/02/28 10:30:51;;;;;;;14.97;9.67;;;;;;;-1.06;65.85;96209.00;5006328;28;20266;-77
2023/02/28 10:33:30;;;;;;;14.23;9.87;;;;;;;-1.18;66.10;96212.03;5011854;28;20187;-76
2023/02/28 10:35:56;;;;;;;12.27;9.27;;;;;;;-0.83;65.05;96204.69;5036687;28;20654;-77
2023/02/28 10:38:28;;;;;;;14.50;10.17;;;;;;;-1.17;65.36;96216.22;5038116;28;20209;-78
2023/02/28 10:41:14;;;;;;;12.30;9.53;;;;;;;-1.07;65.94;96207.31;5019972;28;20184;-78
2023/02/28 10:43:40;;;;;;;16.70;10.17;;;;;;;-1.21;65.85;96209.59;5025640;28;20206;-78
2023/02/28 10:46:09;;;;;;;13.43;9.13;;;;;;;-0.91;64.96;96210.91;5021363;28;20221;-78
2023/02/28 10:48:38;;;;;;;13.97;10.33;;;;;;;-0.74;64.70;96207.69;5020229;28;20681;-78
2023/02/28 10:51:08;;;;;;;13.67;10.23;;;;;;;-0.49;64.30;96207.50;5007236;28;20281;-78
2023/02/28 10:53:37;;;;;;;13.60;9.33;;;;;;;-0.35;63.43;96210.31;5011572;28;20191;-77
2023/02/28 10:56:06;;;;;;;14.07;9.23;;;;;;;-0.26;63.15;96205.69;5015217;28;20237;-78
2023/02/28 10:58:50;;;;;;;13.73;9.13;;;;;;;-0.04;62.88;96209.78;5027226;28;20189;-77
2023/02/28 11:01:41;;;;;;;17.67;10.50;;;;;;;-0.25;62.02;96215.84;5020654;28;20197;-77
2023/02/28 11:04:22;;;;;;;15.00;9.97;;;;;;;-0.32;62.35;96207.59;5024153;28;20215;-78
2023/02/28 11:06:57;;;;;;;11.37;9.77;;;;;;;-0.03;61.92;96219.09;5029007;28;20269;-77
2023/02/28 11:09:38;;;;;;;14.83;10.13;;;;;;;-0.09;61.09;96210.88;5000043;28;20220;-77
2023/02/28 11:12:06;;;;;;;14.33;10.13;;;;;;;0.01;60.87;96204.50;5018025;28;20210;-77
2023/02/28 11:14:35;;;;;;;18.57;10.90;;;;;;;0.12;60.32;96222.72;4996646;28;20208;-77
2023/02/28 11:17:13;;;;;;;11.80;9.07;;;;;;;0.28;60.02;96205.81;5022272;28;20186;-77
2023/02/28 11:19:43;;;;;;;12.93;9.87;;;;;;;0.14;59.98;96204.78;5027797;28;20189;-77
2023/02/28 11:22:10;;;;;;;14.63;10.80;;;;;;;0.46;59.52;96209.25;5026942;28;20181;-77
2023/02/28 11:24:44;;;;;;;12.23;9.80;;;;;;;0.24;59.25;96206.00;5003064;28;20237;-77
2023/02/28 11:27:26;;;;;;;14.67;9.73;;;;;;;0.13;58.85;96209.06;5017234;28;20182;-77
2023/02/28 11:29:52;;;;;;;15.47;10.83;;;;;;;0.22;59.24;96203.53;5013941;28;20185;-77
2023/02/28 11:32:23;;;;;;;14.60;9.37;;;;;;;0.58;58.66;96207.88;5001313;28;20229;-78
2023/02/28 11:35:17;;;;;;;14.17;9.87;;;;;;;0.64;58.47;96205.03;5024698;28;20220;-77
2023/02/28 11:37:45;;;;;;;15.97;10.47;;;;;;;0.96;58.35;96200.94;5029636;28;20209;-78